createdAt,value
2019-02-05T00:01:06.077Z,59.58
2019-02-05T00:03:33.273Z,60.28
2019-02-05T00:06:00.377Z,60.85
2019-02-05T00:08:27.559Z,59.71
2019-02-05T00:10:55.056Z,59.16
2019-02-05T00:13:22.198Z,59.62
2019-02-05T00:15:49.757Z,59.34
2019-02-05T00:18:16.824Z,59.41
2019-02-05T00:20:44.412Z,59.33
2019-02-05T00:23:11.589Z,59.31
2019-02-05T00:25:38.632Z,60.03
2019-02-05T00:28:06.108Z,61.20
2019-02-05T00:30:33.315Z,62.10
2019-02-05T00:33:00.354Z,62.25
2019-02-05T00:35:27.503Z,62.03
2019-02-05T00:37:54.710Z,61.91
2019-02-05T00:40:21.901Z,62.14
2019-02-05T00:42:49.086Z,62.55
2019-02-05T00:45:16.308Z,63.15
2019-02-05T00:47:43.368Z,63.76
2019-02-05T00:50:10.548Z,64.45
2019-02-05T00:52:37.984Z,65.31
2019-02-05T00:55:06.416Z,65.53
2019-02-05T00:57:33.592Z,65.81
2019-02-05T01:00:00.800Z,65.77
2019-02-05T01:02:27.861Z,65.56
2019-02-05T01:04:55.042Z,64.77
2019-02-05T01:07:23.276Z,64.42
2019-02-05T01:09:50.447Z,64.81
2019-02-05T01:12:17.731Z,65.24
2019-02-05T01:14:44.904Z,65.64
2019-02-05T01:17:12.059Z,65.92
2019-02-05T01:19:39.603Z,65.99
2019-02-05T01:22:06.968Z,66.23
2019-02-05T01:24:34.111Z,66.34
2019-02-05T01:27:01.288Z,66.57
2019-02-05T01:29:28.457Z,66.86
2019-02-05T01:31:55.597Z,67.13
2019-02-05T01:34:22.741Z,67.13
2019-02-05T01:36:49.907Z,66.33
2019-02-05T01:39:17.401Z,65.47
2019-02-05T01:41:44.569Z,65.28
2019-02-05T01:44:11.677Z,64.46
2019-02-05T01:46:38.862Z,64.29
2019-02-05T01:49:05.925Z,64.82
2019-02-05T01:51:33.158Z,65.02
2019-02-05T01:54:00.217Z,65.36
2019-02-05T01:56:27.817Z,65.71
2019-02-05T01:58:54.993Z,65.75
2019-02-05T02:01:22.196Z,66.33
2019-02-05T02:03:49.690Z,65.97
2019-02-05T02:06:16.880Z,65.55
2019-02-05T02:08:44.995Z,65.46
2019-02-05T02:11:12.147Z,65.48
2019-02-05T02:13:39.384Z,65.89
2019-02-05T02:16:06.530Z,66.11
2019-02-05T02:18:33.731Z,65.61
2019-02-05T02:21:00.928Z,65.63
2019-02-05T02:23:28.094Z,65.14
2019-02-05T02:25:55.193Z,64.96
2019-02-05T02:28:22.389Z,64.93
2019-02-05T02:30:49.438Z,66.13
2019-02-05T02:33:17.102Z,67.21
2019-02-05T02:35:44.187Z,67.82
2019-02-05T02:38:11.369Z,68.62
2019-02-05T02:40:38.508Z,69.20
2019-02-05T02:43:05.699Z,69.68
2019-02-05T02:45:32.837Z,70.09
2019-02-05T02:48:00.293Z,70.37
2019-02-05T02:50:27.760Z,70.39
2019-02-05T02:52:55.252Z,70.46
2019-02-05T02:55:22.417Z,70.53
2019-02-05T02:57:49.621Z,70.53
2019-02-05T03:00:17.716Z,70.45
2019-02-05T03:02:45.103Z,70.12
2019-02-05T03:05:14.033Z,69.86
2019-02-05T03:07:41.211Z,69.14
2019-02-05T03:10:12.457Z,69.00
2019-02-05T03:12:39.658Z,68.99
2019-02-05T03:15:07.190Z,68.82
2019-02-05T03:17:34.324Z,68.81
2019-02-05T03:20:01.539Z,68.88
2019-02-05T03:22:28.882Z,68.89
2019-02-05T03:24:56.018Z,68.94
2019-02-05T03:27:23.233Z,68.94
2019-02-05T03:29:50.975Z,68.86
2019-02-05T03:32:18.171Z,68.61
2019-02-05T03:34:45.388Z,68.49
2019-02-05T03:37:12.572Z,68.45
2019-02-05T03:39:39.719Z,68.35
2019-02-05T03:42:06.912Z,67.97
2019-02-05T03:44:34.081Z,68.19
2019-02-05T03:47:01.360Z,68.63
2019-02-05T03:49:29.230Z,68.79
2019-02-05T03:52:07.454Z,68.89
2019-02-05T03:55:10.789Z,68.94
2019-02-05T03:58:20.659Z,69.06
2019-02-05T04:01:25.198Z,69.63
2019-02-05T04:04:25.886Z,70.29
2019-02-05T04:07:21.526Z,70.50
2019-02-05T04:10:28.926Z,70.63
2019-02-05T04:13:25.860Z,70.00
2019-02-05T04:16:32.137Z,69.68
2019-02-05T04:19:22.626Z,69.46
2019-02-05T04:22:05.745Z,68.43
2019-02-05T04:25:09.114Z,68.30
2019-02-05T04:28:05.141Z,67.96
2019-02-05T04:30:42.218Z,67.49
2019-02-05T04:34:11.981Z,67.05
2019-02-05T04:37:03.620Z,67.11
2019-02-05T04:40:11.335Z,67.16
2019-02-05T04:42:48.386Z,67.75
2019-02-05T04:45:55.528Z,68.19
2019-02-05T04:49:10.531Z,68.41
2019-02-05T04:52:19.560Z,68.94
2019-02-05T04:55:27.980Z,68.24
2019-02-05T04:58:26.049Z,68.06
2019-02-05T05:01:25.752Z,67.53
2019-02-05T05:04:39.650Z,66.95
2019-02-05T05:07:52.054Z,68.04
2019-02-05T05:10:19.217Z,67.62
2019-02-05T05:12:46.379Z,67.87
2019-02-05T05:15:13.555Z,67.80
2019-02-05T05:17:40.610Z,68.36
2019-02-05T05:20:09.972Z,68.53
2019-02-05T05:22:37.136Z,68.17
2019-02-05T05:25:06.036Z,67.71
2019-02-05T05:27:33.457Z,68.47
2019-02-05T05:30:02.098Z,68.10
2019-02-05T05:32:29.584Z,67.61
2019-02-05T05:34:56.788Z,67.48
2019-02-05T05:37:23.998Z,67.41
2019-02-05T05:39:51.128Z,67.05
2019-02-05T05:42:18.276Z,67.31
2019-02-05T05:44:45.776Z,67.44
2019-02-05T05:47:13.004Z,67.39
2019-02-05T05:49:40.198Z,67.02
2019-02-05T05:52:07.379Z,66.63
2019-02-05T05:54:37.228Z,66.09
2019-02-05T05:57:04.380Z,66.75
2019-02-05T05:59:31.594Z,66.96
2019-02-05T06:01:58.739Z,66.42
2019-02-05T06:04:25.921Z,66.98
2019-02-05T06:06:53.098Z,67.11
2019-02-05T06:09:20.550Z,66.73
2019-02-05T06:11:47.751Z,67.11
2019-02-05T06:14:14.976Z,67.58
2019-02-05T06:16:42.164Z,67.13
2019-02-05T06:19:09.357Z,67.10
2019-02-05T06:21:36.561Z,67.15
2019-02-05T06:24:04.368Z,67.12
2019-02-05T06:26:31.521Z,67.50
2019-02-05T06:28:58.688Z,67.33
2019-02-05T06:31:25.895Z,67.10
2019-02-05T06:33:53.079Z,67.64
2019-02-05T06:36:20.301Z,67.85
2019-02-05T06:38:47.468Z,67.34
2019-02-05T06:41:14.542Z,67.33
2019-02-05T06:43:41.769Z,67.17
2019-02-05T06:46:08.941Z,67.47
2019-02-05T06:48:36.133Z,67.40
2019-02-05T06:51:03.335Z,67.77
2019-02-05T06:53:30.501Z,68.10
2019-02-05T06:55:57.693Z,68.00
2019-02-05T06:58:24.925Z,67.19
2019-02-05T07:00:52.071Z,66.90
2019-02-05T07:03:19.550Z,66.84
2019-02-05T07:05:46.780Z,67.28
2019-02-05T07:08:14.151Z,67.64
2019-02-05T07:10:41.464Z,67.56
2019-02-05T07:13:09.228Z,67.81
2019-02-05T07:15:36.624Z,67.69
2019-02-05T07:18:06.568Z,67.40
2019-02-05T07:20:34.987Z,66.93
2019-02-05T07:23:02.303Z,66.82
2019-02-05T07:25:29.608Z,67.06
2019-02-05T07:27:56.995Z,67.17
2019-02-05T07:30:24.500Z,66.82
2019-02-05T07:32:51.915Z,66.76
2019-02-05T07:35:19.341Z,66.21
2019-02-05T07:37:46.736Z,66.62
2019-02-05T07:40:15.659Z,66.63
2019-02-05T07:42:43.253Z,66.68
2019-02-05T07:45:12.482Z,66.64
2019-02-05T07:47:39.689Z,66.03
2019-02-05T07:50:10.201Z,65.59
2019-02-05T07:52:37.562Z,65.42
2019-02-05T07:55:05.307Z,65.71
2019-02-05T07:57:32.625Z,65.47
2019-02-05T08:00:00.232Z,64.80
2019-02-05T08:02:27.595Z,64.50
2019-02-05T08:04:54.955Z,64.86
2019-02-05T08:07:22.552Z,64.67
2019-02-05T08:09:49.775Z,65.23
2019-02-05T08:12:17.339Z,64.83
2019-02-05T08:14:45.503Z,65.31
2019-02-05T08:17:12.844Z,64.77
2019-02-05T08:19:40.209Z,64.74
2019-02-05T08:22:07.557Z,64.28
2019-02-05T08:24:34.946Z,64.27
2019-02-05T08:27:02.451Z,63.76
2019-02-05T08:29:29.736Z,63.53
2019-02-05T08:31:57.110Z,62.73
2019-02-05T08:34:24.731Z,62.97
2019-02-05T08:36:52.113Z,62.67
2019-02-05T08:39:19.437Z,62.49
2019-02-05T08:41:46.824Z,62.50
2019-02-05T08:44:14.436Z,62.22
2019-02-05T08:46:41.677Z,62.37
2019-02-05T08:49:09.103Z,61.33
2019-02-05T08:51:36.331Z,61.01
2019-02-05T08:54:03.888Z,61.74
2019-02-05T08:56:31.239Z,62.12
2019-02-05T08:58:58.571Z,61.56
2019-02-05T09:01:25.874Z,61.55
2019-02-05T09:03:53.444Z,61.82
2019-02-05T09:06:20.739Z,62.02
2019-02-05T09:08:48.094Z,62.81
2019-02-05T09:11:15.474Z,63.09
2019-02-05T09:13:42.794Z,61.88
2019-02-05T09:16:10.197Z,60.62
2019-02-05T09:18:39.102Z,60.82
2019-02-05T09:21:06.300Z,61.16
2019-02-05T09:23:34.031Z,61.06
2019-02-05T09:26:01.412Z,60.07
2019-02-05T09:28:28.700Z,60.33
2019-02-05T09:30:55.985Z,59.88
2019-02-05T09:33:23.325Z,58.74
2019-02-05T09:35:50.517Z,58.43
2019-02-05T09:38:20.467Z,58.31
2019-02-05T09:40:47.893Z,58.54
2019-02-05T09:43:15.538Z,58.79
2019-02-05T09:45:42.898Z,57.31
2019-02-05T09:48:10.243Z,57.48
2019-02-05T09:50:44.652Z,57.06
2019-02-05T09:53:10.450Z,56.94
2019-02-05T09:55:38.297Z,56.28
2019-02-05T09:58:05.639Z,55.30
2019-02-05T10:00:35.494Z,55.70
2019-02-05T10:03:03.371Z,56.04
2019-02-05T10:05:31.289Z,55.12
2019-02-05T10:07:58.636Z,54.41
2019-02-05T10:10:26.288Z,53.93
2019-02-05T10:12:53.743Z,53.15
2019-02-05T10:15:23.934Z,52.87
2019-02-05T10:17:51.346Z,53.07
2019-02-05T10:20:20.032Z,53.16
2019-02-05T10:22:47.786Z,53.64
2019-02-05T10:25:15.692Z,53.44
2019-02-05T10:27:43.294Z,52.63
2019-02-05T10:30:27.600Z,52.01
2019-02-05T10:32:55.598Z,52.06
2019-02-05T10:35:23.036Z,51.60
2019-02-05T10:37:50.578Z,51.70
2019-02-05T10:40:18.773Z,51.62
2019-02-05T10:42:46.098Z,51.15
2019-02-05T10:45:14.833Z,50.53
2019-02-05T10:47:42.169Z,48.93
2019-02-05T10:50:11.081Z,49.26
2019-02-05T10:52:39.240Z,47.43
2019-02-05T10:55:08.337Z,47.25
2019-02-05T10:57:35.669Z,46.31
2019-02-05T11:00:09.036Z,47.85
2019-02-05T11:02:36.090Z,47.29
2019-02-05T11:05:04.812Z,47.51
2019-02-05T11:07:32.137Z,47.49
2019-02-05T11:09:59.716Z,46.50
2019-02-05T11:12:27.051Z,45.82
2019-02-05T11:14:54.722Z,46.18
2019-02-05T11:17:22.745Z,46.46
2019-02-05T11:19:50.046Z,46.44
2019-02-05T11:22:17.796Z,45.57
2019-02-05T11:24:45.401Z,45.25
2019-02-05T11:27:12.784Z,46.45
2019-02-05T11:29:40.251Z,47.44
2019-02-05T11:32:07.724Z,47.68
2019-02-05T11:34:35.036Z,47.40
2019-02-05T11:37:02.399Z,46.90
2019-02-05T11:39:30.024Z,47.56
2019-02-05T11:41:57.447Z,48.70
2019-02-05T11:44:24.874Z,48.13
2019-02-05T11:46:52.434Z,48.99
2019-02-05T11:49:19.854Z,49.49
2019-02-05T11:51:47.178Z,50.82
2019-02-05T11:54:14.530Z,51.85
2019-02-05T11:56:41.734Z,52.56
2019-02-05T11:59:09.120Z,53.36
2019-02-05T12:01:39.253Z,52.89
2019-02-05T12:04:06.916Z,52.59
2019-02-05T12:06:34.306Z,52.42
2019-02-05T12:09:01.750Z,52.51
2019-02-05T12:11:29.359Z,52.05
2019-02-05T12:13:56.756Z,52.87
2019-02-05T12:16:24.155Z,53.11
2019-02-05T12:18:51.509Z,53.46
2019-02-05T12:21:18.866Z,54.38
2019-02-05T12:23:46.374Z,54.10
2019-02-05T12:26:13.698Z,53.81
2019-02-05T12:28:41.432Z,53.45
2019-02-05T12:31:08.869Z,53.34
2019-02-05T12:33:36.160Z,53.71
2019-02-05T12:36:04.189Z,53.12
2019-02-05T12:38:31.498Z,52.57
2019-02-05T12:40:59.173Z,51.77
2019-02-05T12:43:26.504Z,50.08
2019-02-05T12:45:53.878Z,49.79
2019-02-05T12:48:21.263Z,49.37
2019-02-05T12:50:48.876Z,48.31
2019-02-05T12:53:16.366Z,48.93
2019-02-05T12:55:43.713Z,48.53
2019-02-05T12:58:11.183Z,47.80
2019-02-05T13:00:40.477Z,47.11
2019-02-05T13:03:08.629Z,47.37
2019-02-05T13:05:36.109Z,47.40
2019-02-05T13:08:05.537Z,47.26
2019-02-05T13:10:35.232Z,46.57
2019-02-05T13:13:03.416Z,46.17
2019-02-05T13:15:30.762Z,44.79
2019-02-05T13:17:58.320Z,45.70
2019-02-05T13:20:27.172Z,46.90
2019-02-05T13:22:54.846Z,46.80
2019-02-05T13:25:23.777Z,46.22
2019-02-05T13:27:51.386Z,47.18
2019-02-05T13:30:21.077Z,46.52
2019-02-05T13:32:48.688Z,47.67
2019-02-05T13:35:16.285Z,48.34
2019-02-05T13:37:43.771Z,48.84
2019-02-05T13:40:14.319Z,48.54
2019-02-05T13:42:41.666Z,48.46
2019-02-05T13:45:09.663Z,48.29
2019-02-05T13:47:37.111Z,48.27
2019-02-05T13:50:07.401Z,48.31
2019-02-05T13:52:34.720Z,48.83
2019-02-05T13:55:04.389Z,48.85
2019-02-05T13:57:31.756Z,49.50
2019-02-05T13:59:59.115Z,50.08
2019-02-05T14:02:26.400Z,49.24
2019-02-05T14:04:53.695Z,48.49
2019-02-05T14:07:21.380Z,48.16
2019-02-05T14:09:48.768Z,48.37
2019-02-05T14:12:16.453Z,48.89
2019-02-05T14:14:43.787Z,49.05
2019-02-05T14:17:11.103Z,49.13
2019-02-05T14:19:38.547Z,49.28
2019-02-05T14:22:05.875Z,48.85
2019-02-05T14:24:33.297Z,49.25
2019-02-05T14:27:00.656Z,49.26
2019-02-05T14:29:27.963Z,48.85
2019-02-05T14:31:56.403Z,49.13
2019-02-05T14:34:23.754Z,49.37
2019-02-05T14:36:51.093Z,50.66
2019-02-05T14:39:18.710Z,51.46
2019-02-05T14:41:46.119Z,53.48
2019-02-05T14:44:13.497Z,53.93
2019-02-05T14:46:40.706Z,54.63
2019-02-05T14:49:08.640Z,55.05
2019-02-05T14:51:36.139Z,55.25
2019-02-05T14:54:03.847Z,54.91
2019-02-05T14:56:31.447Z,54.78
2019-02-05T14:58:58.797Z,55.16
2019-02-05T15:01:26.107Z,54.84
2019-02-05T15:03:53.841Z,54.30
2019-02-05T15:06:21.426Z,54.41
2019-02-05T15:08:48.800Z,54.48
2019-02-05T15:11:16.168Z,54.13
2019-02-05T15:13:43.559Z,54.45
2019-02-05T15:16:10.919Z,54.66
2019-02-05T15:18:38.285Z,54.46
2019-02-05T15:21:05.580Z,54.95
2019-02-05T15:23:33.293Z,55.49
2019-02-05T15:26:00.864Z,55.50
2019-02-05T15:28:28.077Z,55.68
2019-02-05T15:30:55.409Z,55.87
2019-02-05T15:33:48.622Z,56.01
2019-02-05T15:36:35.852Z,56.24
2019-02-05T15:39:12.080Z,56.07
2019-02-05T15:41:39.390Z,56.32
2019-02-05T15:44:06.733Z,56.66
2019-02-05T15:46:34.152Z,56.78
2019-02-05T15:49:01.653Z,56.17
2019-02-05T15:51:29.300Z,56.91
2019-02-05T15:53:56.569Z,57.10
2019-02-05T15:56:23.985Z,56.81
2019-02-05T15:58:51.305Z,57.41
2019-02-05T16:01:18.722Z,57.04
2019-02-05T16:03:46.481Z,57.35
2019-02-05T16:06:13.819Z,57.92
2019-02-05T16:08:41.246Z,57.70
2019-02-05T16:11:08.577Z,57.39
2019-02-05T16:13:36.265Z,57.73
2019-02-05T16:16:04.529Z,57.94
2019-02-05T16:18:32.271Z,58.04
2019-02-05T16:20:59.884Z,58.06
2019-02-05T16:23:27.313Z,57.62
2019-02-05T16:25:54.638Z,58.23
2019-02-05T16:28:22.047Z,58.99
2019-02-05T16:30:49.670Z,59.36
2019-02-05T16:33:16.990Z,59.74
2019-02-05T16:35:44.232Z,60.15
2019-02-05T16:38:11.603Z,60.72
2019-02-05T16:40:39.477Z,60.69
2019-02-05T16:43:06.820Z,60.70
2019-02-05T16:45:34.315Z,60.97
2019-02-05T16:48:01.645Z,60.89
2019-02-05T16:50:37.671Z,61.06
2019-02-05T16:53:06.161Z,60.91
2019-02-05T16:55:33.482Z,61.04
2019-02-05T16:58:00.920Z,61.00
2019-02-05T17:00:30.095Z,61.30
2019-02-05T17:02:57.797Z,61.34
2019-02-05T17:05:26.284Z,61.76
2019-02-05T17:07:53.758Z,62.15
2019-02-05T17:10:21.202Z,62.28
2019-02-05T17:12:48.616Z,62.14
2019-02-05T17:15:16.466Z,62.32
2019-02-05T17:17:44.009Z,62.45
2019-02-05T17:20:17.558Z,62.35
2019-02-05T17:22:44.890Z,62.33
2019-02-05T17:25:13.674Z,62.46
2019-02-05T17:27:41.416Z,62.79
2019-02-05T17:30:11.986Z,62.79
2019-02-05T17:32:40.472Z,62.69
2019-02-05T17:35:08.378Z,62.90
2019-02-05T17:37:35.749Z,62.78
2019-02-05T17:40:04.392Z,62.93
2019-02-05T17:42:31.991Z,63.24
2019-02-05T17:44:59.437Z,63.15
2019-02-05T17:47:26.759Z,63.46
2019-02-05T17:49:54.128Z,62.99
2019-02-05T17:52:21.535Z,63.02
2019-02-05T17:54:48.880Z,63.09
2019-02-05T17:57:16.324Z,63.44
2019-02-05T17:59:43.577Z,63.37
2019-02-05T18:02:11.139Z,63.69
2019-02-05T18:04:38.471Z,63.74
2019-02-05T18:07:06.163Z,63.65
2019-02-05T18:09:33.489Z,63.92
2019-02-05T18:12:00.905Z,64.28
2019-02-05T18:14:28.307Z,64.24
2019-02-05T18:16:55.662Z,63.76
2019-02-05T18:19:23.445Z,63.16
2019-02-05T18:21:50.799Z,63.09
2019-02-05T18:24:19.098Z,63.03
2019-02-05T18:26:46.483Z,63.39
2019-02-05T18:29:13.830Z,63.66
2019-02-05T18:31:41.187Z,63.78
2019-02-05T18:34:08.563Z,63.72
2019-02-05T18:36:36.195Z,63.77
2019-02-05T18:39:07.376Z,63.87
2019-02-05T18:41:34.731Z,63.88
2019-02-05T18:44:02.124Z,63.60
2019-02-05T18:46:29.420Z,63.36
2019-02-05T18:49:04.550Z,63.46
2019-02-05T18:51:26.062Z,64.00
2019-02-05T18:53:53.800Z,64.53
2019-02-05T18:56:21.164Z,63.73
2019-02-05T18:58:50.486Z,63.25
2019-02-05T19:01:17.769Z,63.19
2019-02-05T19:03:45.200Z,63.46
2019-02-05T19:06:12.498Z,63.54
2019-02-05T19:08:39.832Z,63.60
2019-02-05T19:11:07.873Z,63.70
2019-02-05T19:13:35.292Z,63.92
2019-02-05T19:16:02.736Z,64.29
2019-02-05T19:18:30.442Z,64.43
2019-02-05T19:20:57.734Z,64.21
2019-02-05T19:23:25.559Z,63.74
2019-02-05T19:25:58.891Z,63.41
2019-02-05T19:28:37.000Z,63.39
2019-02-05T19:31:25.281Z,63.50
2019-02-05T19:33:52.880Z,63.90
2019-02-05T19:36:20.192Z,63.57
2019-02-05T19:38:47.530Z,63.77
2019-02-05T19:41:14.919Z,64.21
2019-02-05T19:43:42.201Z,64.68
2019-02-05T19:46:38.332Z,64.89
2019-02-05T19:49:22.060Z,65.07
2019-02-05T19:51:49.618Z,65.30
2019-02-05T19:54:17.331Z,65.44
2019-02-05T19:56:44.638Z,65.39
2019-02-05T19:59:12.442Z,65.30
2019-02-05T20:01:39.758Z,65.33
2019-02-05T20:04:07.072Z,65.56
2019-02-05T20:06:34.513Z,65.19
2019-02-05T20:09:03.568Z,65.44
2019-02-05T20:11:31.177Z,65.51
2019-02-05T20:13:59.670Z,65.57
2019-02-05T20:16:27.007Z,66.05
2019-02-05T20:18:54.470Z,66.21
2019-02-05T20:21:21.844Z,65.53
2019-02-05T20:23:49.109Z,65.50
2019-02-05T20:26:16.743Z,65.30
2019-02-05T20:28:44.233Z,65.38
2019-02-05T20:31:11.479Z,65.65
2019-02-05T20:33:49.424Z,65.88
2019-02-05T20:36:08.164Z,65.90
2019-02-05T20:38:35.376Z,66.17
2019-02-05T20:41:02.637Z,66.47
2019-02-05T20:43:29.818Z,65.73
2019-02-05T20:45:57.549Z,65.43
2019-02-05T20:48:24.736Z,65.62
2019-02-05T20:50:51.889Z,65.80
2019-02-05T20:53:19.088Z,66.10
2019-02-05T20:55:46.339Z,66.25
2019-02-05T20:58:13.654Z,66.54
2019-02-05T21:00:40.906Z,66.49
2019-02-05T21:03:08.132Z,66.16
2019-02-05T21:05:35.944Z,66.24
2019-02-05T21:08:03.404Z,66.44
2019-02-05T21:10:31.113Z,66.90
2019-02-05T21:12:58.557Z,67.09
2019-02-05T21:15:25.810Z,67.28
2019-02-05T21:17:53.004Z,67.34
2019-02-05T21:20:28.956Z,67.35
2019-02-05T21:22:49.712Z,67.27
2019-02-05T21:25:18.202Z,67.25
2019-02-05T21:27:45.504Z,67.36
2019-02-05T21:30:15.161Z,67.36
2019-02-05T21:32:42.454Z,67.69
2019-02-05T21:35:09.984Z,67.35
2019-02-05T21:37:37.264Z,66.60
2019-02-05T21:40:05.998Z,66.64
2019-02-05T21:42:33.944Z,67.20
2019-02-05T21:45:01.238Z,67.52
2019-02-05T21:47:28.627Z,67.69
2019-02-05T21:49:55.843Z,67.35
2019-02-05T21:52:23.086Z,67.43
2019-02-05T21:54:50.253Z,67.53
2019-02-05T21:57:17.512Z,67.94
2019-02-05T21:59:44.635Z,68.12
2019-02-05T22:02:12.390Z,68.13
2019-02-05T22:04:40.028Z,67.93
2019-02-05T22:07:07.935Z,67.66
2019-02-05T22:09:35.212Z,67.68
2019-02-05T22:12:02.400Z,68.04
2019-02-05T22:14:29.583Z,68.24
2019-02-05T22:16:57.380Z,68.15
2019-02-05T22:19:24.602Z,68.24
2019-02-05T22:21:51.776Z,68.80
2019-02-05T22:24:19.021Z,69.13
2019-02-05T22:26:46.539Z,69.41
2019-02-05T22:29:13.717Z,69.74
2019-02-05T22:31:40.935Z,69.90
2019-02-05T22:34:08.784Z,70.25
2019-02-05T22:36:35.951Z,71.01
2019-02-05T22:39:07.321Z,71.71
2019-02-05T22:41:34.436Z,72.45
2019-02-05T22:44:01.982Z,73.14
2019-02-05T22:46:29.578Z,73.83
2019-02-05T22:48:57.107Z,74.49
2019-02-05T22:51:24.267Z,75.21
2019-02-05T22:53:51.478Z,75.78
2019-02-05T22:56:18.951Z,76.32
2019-02-05T22:58:46.564Z,76.77
2019-02-05T23:01:45.360Z,77.21
2019-02-05T23:04:50.859Z,77.75
2019-02-05T23:07:18.759Z,78.17
2019-02-05T23:10:12.396Z,78.70
2019-02-05T23:12:52.110Z,79.11
2019-02-05T23:15:24.171Z,79.50
2019-02-05T23:17:51.853Z,79.75
2019-02-05T23:20:20.718Z,80.08
2019-02-05T23:22:48.230Z,80.31
2019-02-05T23:25:15.496Z,80.60
2019-02-05T23:27:42.729Z,80.87
2019-02-05T23:30:32.745Z,81.01
2019-02-05T23:33:00.197Z,81.27
2019-02-05T23:35:27.698Z,81.89
2019-02-05T23:37:54.848Z,82.04
2019-02-05T23:40:22.195Z,82.11
2019-02-05T23:42:49.344Z,82.19
2019-02-05T23:45:16.570Z,82.25
2019-02-05T23:47:43.649Z,82.32
2019-02-05T23:50:12.501Z,82.60
2019-02-05T23:52:39.988Z,82.94
2019-02-05T23:55:08.921Z,83.21
2019-02-05T23:57:36.107Z,83.32
